15:01
Airports
Links
Donate
Help keep this website running!
PayPal
Bitcoin
METAR
LFMN 161430Z 25027G38KT 200V290 9999 FEW026 18/06 Q1005 NOSIG
Current Weather Conditions at LFMN
VFR 14:30:00 16-01-18
Altimeter:29.68 hg
Temp:18.0°c 64°f
Dew point:6.0°c 43°f
Wind:27 knots, 31.1 mph, 14 m/s, from 250°
Visibility:6.21 statute miles
2600(FEW) A few
No significant weather changes expected within 2 hours.
Past METAR reports
VFR 14:00:00 16-01-18
Altimeter:29.68 hg
Temp:18.0°c 64°f
Dew point:5.0°c 41°f
Wind:28 knots, 32.2 mph, 14 m/s, from 260°
Visibility:6.21 statute miles
2600(FEW) A few
No significant weather changes expected within 2 hours.
LFMN 161400Z 26028KT 220V280 9999 FEW026 18/05 Q1005 NOSIG
VFR 13:30:00 16-01-18
Altimeter:29.68 hg
Temp:17.0°c 63°f
Dew point:7.0°c 45°f
Wind:25 knots, 28.8 mph, 13 m/s, from 250°
Visibility:6.21 statute miles
2600(FEW) A few
No significant weather changes expected within 2 hours.
LFMN 161330Z 25025KT 210V310 9999 FEW026 17/07 Q1005 NOSIG
VFR 13:00:00 16-01-18
Altimeter:29.70 hg
Temp:18.0°c 64°f
Dew point:6.0°c 43°f
Wind:26 knots, 29.9 mph, 13 m/s, from 250°
Visibility:6.21 statute miles
2000(FEW) A few
No significant weather changes expected within 2 hours.
LFMN 161300Z 25026KT 210V270 9999 FEW020 18/06 Q1006 NOSIG
VFR 12:30:00 16-01-18
Altimeter:29.70 hg
Temp:18.0°c 64°f
Dew point:6.0°c 43°f
Wind:24 knots, 27.6 mph, 12 m/s, from 250°
Visibility:6.21 statute miles
2000(FEW) A few
No significant weather changes expected within 2 hours.
LFMN 161230Z 25024KT 220V310 9999 FEW020 18/06 Q1006 NOSIG
VFR 12:00:00 16-01-18
Altimeter:29.70 hg
Temp:16.0°c 61°f
Dew point:7.0°c 45°f
Wind:25 knots, 28.8 mph, 13 m/s, from 230°
Visibility:6.21 statute miles
5000(FEW) A few
No significant weather changes expected within 2 hours.
LFMN 161200Z 23025KT 200V260 9999 FEW050 16/07 Q1006 NOSIG
VFR 11:30:00 16-01-18
Altimeter:29.73 hg
Temp:16.0°c 61°f
Dew point:7.0°c 45°f
Wind:26 knots, 29.9 mph, 13 m/s, from 230°
Visibility:6.21 statute miles
5000(FEW) A few
No significant weather changes expected within 2 hours.
LFMN 161130Z 23026KT 9999 FEW050 16/07 Q1007 NOSIG
TAF
TAF LFMN 161400Z 1615/1721 25025G35KT CAVOK BECMG 1707/1709 30015G25KT BECMG 1716/1718 33010KT
Forecast at LFMN
15:00 16-01-18 to 07:00 17-01-18
NSW
Wind:25 Knots from 250°
Visibility:6.21 statute miles
NSC
BECMG 07:00 17-01-18 to 16:00 17-01-18
NSW
Wind:15 Knots from 300°
Visibility:6.21 statute miles
NSC
BECMG 16:00 17-01-18 to 21:00 17-01-18
NSW
Wind:10 Knots from 330°
Visibility:6.21 statute miles
NSC